Time;durP1;ratioP1;P1;durP2;ratioP2;P2;SDS_P1;SDS_P2;PMS_P1;PMS_P2;Temp;Humidity;BMP_temperature;BMP_pressure;BME280_temperature;BME280_humidity;BME280_pressure;Samples;Min_cycle;Max_cycle;Signal;HPM_P1;HPM_P2
2023/09/28 00:01:57;;;;;;;8.20;3.90;;;;;;;;;;10242933;28;20065;-67
2023/09/28 00:06:57;;;;;;;7.80;4.07;;;;;;;;;;10254324;28;20072;-68
2023/09/28 00:11:55;;;;;;;11.95;3.90;;;;;;;;;;10253940;28;20061;-67
2023/09/28 00:16:53;;;;;;;8.75;4.43;;;;;;;;;;10252956;28;20072;-66
2023/09/28 00:21:52;;;;;;;15.32;4.32;;;;;;;;;;10249912;28;20073;-66
2023/09/28 00:26:52;;;;;;;15.57;3.65;;;;;;;;;;10248595;28;20080;-66
2023/09/28 00:31:50;;;;;;;14.65;3.75;;;;;;;;;;10236624;28;20474;-66
2023/09/28 00:36:50;;;;;;;9.27;3.28;;;;;;;;;;10256516;28;20092;-67
2023/09/28 00:41:48;;;;;;;5.75;3.60;;;;;;;;;;10237789;28;20084;-67
2023/09/28 00:46:49;;;;;;;10.40;3.72;;;;;;;;;;10249951;28;20064;-68
2023/09/28 00:51:47;;;;;;;8.68;3.78;;;;;;;;;;10241898;28;20557;-67
2023/09/28 00:56:46;;;;;;;11.25;4.93;;;;;;;;;;10251856;28;20076;-67
2023/09/28 01:01:46;;;;;;;14.05;3.72;;;;;;;;;;10233862;28;20511;-67
2023/09/28 01:06:46;;;;;;;6.82;3.83;;;;;;;;;;10240577;28;20057;-67
2023/09/28 01:11:45;;;;;;;10.05;3.72;;;;;;;;;;10250974;28;20061;-67
2023/09/28 01:16:44;;;;;;;11.95;3.70;;;;;;;;;;10233238;28;20470;-67
2023/09/28 01:21:42;;;;;;;8.77;3.50;;;;;;;;;;10249561;28;20068;-67
2023/09/28 01:26:43;;;;;;;5.97;3.72;;;;;;;;;;10241838;28;20084;-67
2023/09/28 01:31:41;;;;;;;8.65;3.80;;;;;;;;;;10249115;28;20584;-67
2023/09/28 01:36:39;;;;;;;11.52;4.45;;;;;;;;;;10233743;28;20081;-67
2023/09/28 01:41:37;;;;;;;8.55;3.75;;;;;;;;;;10250607;28;20068;-67
2023/09/28 01:46:37;;;;;;;7.35;3.58;;;;;;;;;;10247987;28;20506;-67
2023/09/28 01:51:35;;;;;;;5.85;4.07;;;;;;;;;;10249734;28;20071;-67
2023/09/28 01:56:33;;;;;;;11.90;3.75;;;;;;;;;;10237575;28;20108;-67
2023/09/28 02:01:32;;;;;;;8.13;3.60;;;;;;;;;;10233445;28;20045;-67
2023/09/28 02:06:31;;;;;;;6.43;3.88;;;;;;;;;;10232394;28;20081;-67
2023/09/28 02:11:30;;;;;;;9.98;3.80;;;;;;;;;;10246029;28;20083;-67
2023/09/28 02:16:28;;;;;;;8.18;4.18;;;;;;;;;;10232646;28;20073;-67
2023/09/28 02:21:26;;;;;;;15.15;3.97;;;;;;;;;;10247477;28;20073;-67
2023/09/28 02:26:26;;;;;;;10.75;5.28;;;;;;;;;;10247221;28;20072;-67
2023/09/28 02:31:27;;;;;;;11.95;4.88;;;;;;;;;;10249017;28;20076;-67
2023/09/28 02:36:31;;;;;;;11.95;4.30;;;;;;;;;;10234595;28;20095;-67
2023/09/28 02:41:31;;;;;;;8.82;4.88;;;;;;;;;;10249326;28;20092;-67
2023/09/28 02:46:29;;;;;;;8.55;4.35;;;;;;;;;;10248556;28;20041;-67
2023/09/28 02:51:28;;;;;;;14.57;4.68;;;;;;;;;;10249157;28;20068;-67
2023/09/28 02:56:26;;;;;;;13.07;4.28;;;;;;;;;;10235778;28;20069;-67
2023/09/28 03:01:26;;;;;;;11.20;4.72;;;;;;;;;;10248661;28;20518;-67
2023/09/28 03:06:24;;;;;;;10.95;4.45;;;;;;;;;;10248618;28;20045;-67
2023/09/28 03:11:22;;;;;;;15.95;6.18;;;;;;;;;;10257093;28;20537;-67
2023/09/28 03:16:21;;;;;;;11.57;5.07;;;;;;;;;;10256015;28;20566;-67
2023/09/28 03:21:21;;;;;;;11.30;4.68;;;;;;;;;;10240464;28;20466;-67
2023/09/28 03:26:20;;;;;;;9.98;4.32;;;;;;;;;;10252598;28;20076;-67
2023/09/28 03:31:18;;;;;;;8.93;5.50;;;;;;;;;;10254571;28;20420;-67
2023/09/28 03:36:16;;;;;;;14.55;5.05;;;;;;;;;;10254008;28;20119;-67
2023/09/28 03:41:17;;;;;;;12.70;4.78;;;;;;;;;;10254090;28;20080;-67
2023/09/28 03:46:18;;;;;;;11.98;5.35;;;;;;;;;;10254039;28;20077;-67
2023/09/28 03:51:17;;;;;;;10.80;4.55;;;;;;;;;;10253572;28;20507;-66
2023/09/28 03:56:16;;;;;;;14.10;4.53;;;;;;;;;;10251710;28;20678;-69
2023/09/28 04:01:15;;;;;;;12.73;5.22;;;;;;;;;;10252651;28;20072;-68
2023/09/28 04:06:13;;;;;;;13.60;4.65;;;;;;;;;;10253041;28;20084;-68
2023/09/28 04:11:11;;;;;;;10.65;4.78;;;;;;;;;;10256807;28;20084;-68
2023/09/28 04:16:11;;;;;;;8.70;4.55;;;;;;;;;;10251648;28;20091;-68
2023/09/28 04:21:09;;;;;;;7.47;5.78;;;;;;;;;;10257475;28;20081;-67
2023/09/28 04:26:08;;;;;;;11.45;5.38;;;;;;;;;;10265132;28;20505;-67
2023/09/28 04:31:06;;;;;;;12.77;4.85;;;;;;;;;;10256608;28;20084;-68
2023/09/28 04:36:07;;;;;;;10.82;5.65;;;;;;;;;;10254364;28;20073;-68
2023/09/28 04:41:05;;;;;;;23.77;6.35;;;;;;;;;;10248983;28;20073;-68
2023/09/28 04:46:05;;;;;;;12.90;5.25;;;;;;;;;;10245539;28;20080;-68
2023/09/28 04:51:05;;;;;;;16.13;6.03;;;;;;;;;;10245938;28;20080;-68
2023/09/28 04:56:11;;;;;;;16.70;5.40;;;;;;;;;;10249728;28;20089;-68
2023/09/28 05:01:09;;;;;;;21.02;7.10;;;;;;;;;;10248119;28;20072;-68
2023/09/28 05:06:07;;;;;;;21.73;6.97;;;;;;;;;;10251388;28;20073;-68
2023/09/28 05:11:06;;;;;;;24.50;7.50;;;;;;;;;;10249423;28;20080;-66
2023/09/28 05:16:07;;;;;;;18.85;6.95;;;;;;;;;;10249232;28;20076;-66
2023/09/28 05:21:05;;;;;;;17.33;6.82;;;;;;;;;;10257395;28;20506;-66
2023/09/28 05:26:04;;;;;;;18.48;5.10;;;;;;;;;;10251082;28;20076;-67
2023/09/28 05:31:03;;;;;;;14.77;5.03;;;;;;;;;;10249113;28;20556;-66
2023/09/28 05:36:05;;;;;;;10.90;5.00;;;;;;;;;;10255340;28;20506;-65
2023/09/28 05:41:04;;;;;;;15.25;6.65;;;;;;;;;;10252797;28;20084;-66
2023/09/28 05:46:03;;;;;;;36.10;7.63;;;;;;;;;;10252105;28;20077;-66
2023/09/28 05:51:02;;;;;;;13.77;5.97;;;;;;;;;;10251920;28;20077;-66
2023/09/28 05:56:03;;;;;;;12.98;4.43;;;;;;;;;;10245931;28;20083;-66
2023/09/28 06:01:06;;;;;;;33.47;8.35;;;;;;;;;;10248497;28;21021;-67
2023/09/28 06:06:14;;;;;;;26.38;5.78;;;;;;;;;;10252046;28;20088;-67
2023/09/28 06:11:14;;;;;;;13.48;4.93;;;;;;;;;;10252439;28;20072;-67
2023/09/28 06:16:13;;;;;;;17.33;5.65;;;;;;;;;;10247454;28;20068;-67
2023/09/28 06:21:12;;;;;;;9.48;5.28;;;;;;;;;;10252564;28;20549;-67
2023/09/28 06:26:10;;;;;;;13.27;4.78;;;;;;;;;;10247573;28;20087;-66
2023/09/28 06:31:12;;;;;;;12.77;3.95;;;;;;;;;;10248980;28;20208;-67
2023/09/28 06:36:11;;;;;;;16.38;5.00;;;;;;;;;;10254210;28;20565;-64
2023/09/28 06:41:14;;;;;;;16.38;4.78;;;;;;;;;;10255114;28;20072;-67
2023/09/28 06:46:14;;;;;;;12.63;4.85;;;;;;;;;;10259894;28;20076;-67
2023/09/28 06:51:12;;;;;;;11.35;5.05;;;;;;;;;;10255946;28;20079;-66
2023/09/28 06:56:11;;;;;;;7.57;4.13;;;;;;;;;;10254734;28;20073;-67
2023/09/28 07:01:13;;;;;;;6.35;4.13;;;;;;;;;;10257242;28;20077;-67
2023/09/28 07:06:12;;;;;;;15.07;4.30;;;;;;;;;;10257527;28;20143;-67
2023/09/28 07:11:10;;;;;;;14.18;4.18;;;;;;;;;;10261906;28;20069;-67
2023/09/28 07:16:09;;;;;;;8.68;3.42;;;;;;;;;;10258178;28;20516;-66
2023/09/28 07:21:08;;;;;;;5.68;3.85;;;;;;;;;;10260184;28;20083;-67
2023/09/28 07:26:12;;;;;;;15.10;4.78;;;;;;;;;;10245926;28;20560;-67
2023/09/28 07:31:11;;;;;;;9.10;4.10;;;;;;;;;;10259492;28;20087;-67
2023/09/28 07:36:10;;;;;;;8.75;4.03;;;;;;;;;;10254633;28;20065;-67
2023/09/28 07:41:10;;;;;;;7.50;3.72;;;;;;;;;;10256744;28;20069;-69
2023/09/28 07:46:08;;;;;;;5.78;3.60;;;;;;;;;;10256898;28;20114;-66
2023/09/28 07:51:06;;;;;;;6.75;3.70;;;;;;;;;;10247888;28;20080;-66
2023/09/28 07:56:06;;;;;;;12.60;4.32;;;;;;;;;;10249271;28;20065;-66
2023/09/28 08:01:04;;;;;;;10.52;3.50;;;;;;;;;;10259005;28;20502;-66
2023/09/28 08:06:03;;;;;;;5.53;3.70;;;;;;;;;;10260070;28;20082;-68
2023/09/28 08:11:01;;;;;;;14.52;4.63;;;;;;;;;;10255162;28;20147;-67
2023/09/28 08:16:01;;;;;;;12.10;4.35;;;;;;;;;;10259068;28;20530;-68
2023/09/28 08:20:59;;;;;;;13.95;3.83;;;;;;;;;;10257172;28;20081;-67
2023/09/28 08:26:07;;;;;;;11.50;4.13;;;;;;;;;;10256578;28;20073;-65
2023/09/28 08:31:07;;;;;;;14.00;3.72;;;;;;;;;;10253518;28;20080;-66
2023/09/28 08:36:07;;;;;;;14.07;4.60;;;;;;;;;;10250533;28;20084;-66
2023/09/28 08:41:10;;;;;;;8.55;4.22;;;;;;;;;;10256215;28;20544;-65
2023/09/28 08:46:11;;;;;;;10.55;4.35;;;;;;;;;;10255984;28;20076;-66
2023/09/28 08:51:11;;;;;;;20.23;5.05;;;;;;;;;;10255314;28;20481;-66
2023/09/28 08:56:09;;;;;;;12.10;3.85;;;;;;;;;;10253763;28;20068;-67
2023/09/28 09:01:07;;;;;;;11.93;3.50;;;;;;;;;;10255828;28;20073;-67
2023/09/28 09:06:09;;;;;;;15.90;4.20;;;;;;;;;;10246085;28;20079;-65
2023/09/28 09:11:10;;;;;;;9.13;4.10;;;;;;;;;;10251135;28;20072;-66
2023/09/28 09:16:08;;;;;;;12.65;4.22;;;;;;;;;;10247960;28;20080;-66
2023/09/28 09:21:08;;;;;;;21.25;4.07;;;;;;;;;;10239322;28;20077;-66
2023/09/28 09:26:15;;;;;;;8.32;3.40;;;;;;;;;;10253985;28;20076;-66
2023/09/28 09:31:15;;;;;;;9.55;3.60;;;;;;;;;;10253747;28;20072;-66
2023/09/28 09:36:18;;;;;;;9.57;3.15;;;;;;;;;;10237923;28;20080;-66
2023/09/28 09:41:16;;;;;;;8.30;3.30;;;;;;;;;;10257225;28;20589;-67
2023/09/28 09:46:15;;;;;;;21.35;3.95;;;;;;;;;;10256285;28;20083;-67
2023/09/28 09:51:14;;;;;;;9.10;3.30;;;;;;;;;;10251896;28;20076;-67
2023/09/28 09:56:15;;;;;;;10.70;3.63;;;;;;;;;;10250338;28;20069;-67
2023/09/28 10:01:14;;;;;;;12.40;3.70;;;;;;;;;;10254394;28;20083;-66
2023/09/28 10:06:15;;;;;;;16.08;3.90;;;;;;;;;;10251103;28;20079;-68
2023/09/28 10:11:15;;;;;;;20.67;4.10;;;;;;;;;;10251945;28;20532;-67
2023/09/28 10:16:13;;;;;;;14.30;3.70;;;;;;;;;;10248461;28;20081;-66
2023/09/28 10:21:12;;;;;;;9.75;3.60;;;;;;;;;;10250989;28;20077;-66
2023/09/28 10:26:12;;;;;;;24.33;5.05;;;;;;;;;;10248887;28;20069;-66
2023/09/28 10:31:25;;;;;;;15.88;3.10;;;;;;;;;;10326499;28;20395;-67
2023/09/28 10:36:28;;;;;;;;;;;;;;;;;;10316590;28;20087;-67
2023/09/28 10:41:26;;;;;;;15.38;3.67;;;;;;;;;;10315160;28;19952;-68
2023/09/28 10:46:29;;;;;;;15.20;4.07;;;;;;;;;;10319991;28;20461;-69
2023/09/28 10:51:27;;;;;;;9.73;3.80;;;;;;;;;;10323174;28;20067;-68
2023/09/28 10:56:26;;;;;;;17.50;3.75;;;;;;;;;;10317405;28;20064;-66
2023/09/28 11:01:33;;;;;;;12.93;3.33;;;;;;;;;;10318064;28;20068;-66
2023/09/28 11:06:33;;;;;;;18.27;4.10;;;;;;;;;;10319084;28;20083;-67
2023/09/28 11:11:32;;;;;;;10.30;3.80;;;;;;;;;;10320516;28;20076;-67
2023/09/28 11:16:31;;;;;;;14.57;3.78;;;;;;;;;;10320630;28;20486;-67
2023/09/28 11:21:31;;;;;;;9.00;4.05;;;;;;;;;;10319904;28;20068;-67
2023/09/28 11:26:30;;;;;;;15.95;3.95;;;;;;;;;;10317361;28;20067;-66
2023/09/28 11:31:35;;;;;;;20.23;3.92;;;;;;;;;;10320823;28;20450;-66
2023/09/28 11:36:34;;;;;;;15.15;3.47;;;;;;;;;;10318129;28;20073;-66
2023/09/28 11:41:33;;;;;;;11.45;3.67;;;;;;;;;;10299177;28;20136;-67
2023/09/28 11:46:32;;;;;;;15.50;3.80;;;;;;;;;;10292006;28;20070;-66
2023/09/28 11:51:31;;;;;;;12.57;3.20;;;;;;;;;;10292997;28;20079;-67
2023/09/28 11:56:31;;;;;;;14.48;3.72;;;;;;;;;;10290431;28;20071;-66
2023/09/28 12:01:29;;;;;;;15.50;3.50;;;;;;;;;;10293466;28;20122;-67
2023/09/28 12:06:28;;;;;;;20.85;2.90;;;;;;;;;;10288464;28;20078;-67
2023/09/28 12:11:27;;;;;;;12.02;3.10;;;;;;;;;;10286233;28;20079;-69
2023/09/28 12:16:26;;;;;;;15.65;2.63;;;;;;;;;;10291638;28;20065;-67
2023/09/28 12:21:25;;;;;;;15.13;3.78;;;;;;;;;;10286563;28;20089;-67
2023/09/28 12:26:26;;;;;;;16.73;4.72;;;;;;;;;;10286787;28;20056;-67
2023/09/28 12:31:24;;;;;;;14.52;3.58;;;;;;;;;;10290222;28;20072;-67
2023/09/28 12:36:24;;;;;;;17.27;2.78;;;;;;;;;;10289354;28;20061;-67
2023/09/28 12:41:23;;;;;;;20.08;3.10;;;;;;;;;;10286256;28;20064;-68
2023/09/28 12:46:21;;;;;;;15.13;2.97;;;;;;;;;;10288886;28;20532;-67
2023/09/28 12:51:19;;;;;;;13.30;2.50;;;;;;;;;;10287550;28;20080;-67
2023/09/28 12:56:19;;;;;;;14.65;3.05;;;;;;;;;;10287798;28;20076;-67
2023/09/28 13:01:18;;;;;;;12.00;2.95;;;;;;;;;;10288239;28;20457;-67
2023/09/28 13:06:17;;;;;;;12.60;3.03;;;;;;;;;;10288902;28;20071;-67
2023/09/28 13:11:16;;;;;;;9.57;2.97;;;;;;;;;;10289474;28;20083;-67
2023/09/28 13:16:20;;;;;;;12.75;2.67;;;;;;;;;;10287412;28;20076;-67
2023/09/28 13:21:19;;;;;;;19.50;2.97;;;;;;;;;;10287026;28;20065;-67
2023/09/28 13:26:18;;;;;;;13.85;3.28;;;;;;;;;;10287260;28;20060;-67
2023/09/28 13:31:17;;;;;;;15.75;2.63;;;;;;;;;;10287384;28;20182;-67
2023/09/28 13:36:18;;;;;;;18.70;3.38;;;;;;;;;;10286501;28;20505;-67
2023/09/28 13:41:17;;;;;;;12.85;3.17;;;;;;;;;;10288695;28;20073;-67
2023/09/28 13:46:18;;;;;;;10.45;3.28;;;;;;;;;;10286237;28;20084;-67
2023/09/28 13:51:16;;;;;;;17.35;3.35;;;;;;;;;;10286803;28;20087;-67
2023/09/28 13:56:15;;;;;;;15.93;3.20;;;;;;;;;;10286694;28;20625;-67
2023/09/28 14:01:14;;;;;;;15.75;3.15;;;;;;;;;;10285372;28;20569;-67
2023/09/28 14:06:14;;;;;;;17.92;4.45;;;;;;;;;;10281005;28;20064;-66
2023/09/28 14:11:12;;;;;;;17.92;3.33;;;;;;;;;;10282783;28;20501;-66
2023/09/28 14:16:11;;;;;;;13.18;3.05;;;;;;;;;;10282167;28;20077;-67
2023/09/28 14:21:10;;;;;;;20.42;3.70;;;;;;;;;;10286348;28;20069;-66
2023/09/28 14:26:10;;;;;;;21.08;7.57;;;;;;;;;;10286542;28;20541;-67
2023/09/28 14:31:08;;;;;;;20.27;7.18;;;;;;;;;;10283617;28;20699;-67
2023/09/28 14:36:07;;;;;;;15.70;4.75;;;;;;;;;;10288207;28;20095;-67
2023/09/28 14:41:05;;;;;;;23.85;6.25;;;;;;;;;;10289153;28;20080;-68
2023/09/28 14:46:05;;;;;;;23.90;4.65;;;;;;;;;;10286429;28;20075;-67
2023/09/28 14:51:03;;;;;;;18.40;9.48;;;;;;;;;;10286628;28;20076;-68
2023/09/28 14:56:01;;;;;;;15.07;6.18;;;;;;;;;;10281952;28;20844;-69
2023/09/28 15:01:00;;;;;;;10.52;3.08;;;;;;;;;;10287483;28;20068;-66
2023/09/28 15:06:00;;;;;;;14.23;3.78;;;;;;;;;;10285677;28;20076;-67
2023/09/28 15:10:59;;;;;;;13.43;3.20;;;;;;;;;;10288532;28;20493;-67
2023/09/28 15:15:57;;;;;;;14.25;3.63;;;;;;;;;;10288076;28;20084;-66
2023/09/28 15:21:00;;;;;;;9.88;3.67;;;;;;;;;;10292885;28;20072;-67
2023/09/28 15:26:01;;;;;;;17.90;4.05;;;;;;;;;;10293590;28;20509;-68
2023/09/28 15:31:00;;;;;;;10.35;3.75;;;;;;;;;;10286780;28;20099;-68
2023/09/28 15:36:00;;;;;;;18.45;4.25;;;;;;;;;;10290120;28;20075;-67
2023/09/28 15:40:58;;;;;;;14.40;5.20;;;;;;;;;;10287054;28;20076;-66
2023/09/28 15:45:56;;;;;;;11.68;4.03;;;;;;;;;;10288597;28;20537;-67
2023/09/28 15:50:54;;;;;;;10.57;3.75;;;;;;;;;;10292230;28;20080;-67
2023/09/28 15:55:54;;;;;;;23.65;4.40;;;;;;;;;;10290097;28;20079;-66
2023/09/28 16:00:52;;;;;;;11.52;2.95;;;;;;;;;;10291089;28;20075;-67
2023/09/28 16:05:51;;;;;;;16.38;4.18;;;;;;;;;;10291184;28;20466;-68
2023/09/28 16:10:51;;;;;;;14.57;4.95;;;;;;;;;;10288370;28;20083;-68
2023/09/28 16:15:50;;;;;;;9.18;3.33;;;;;;;;;;10291479;28;20072;-69
2023/09/28 16:20:49;;;;;;;14.57;3.50;;;;;;;;;;10290349;28;20075;-68
2023/09/28 16:25:47;;;;;;;13.30;3.38;;;;;;;;;;10287931;28;20068;-68
2023/09/28 16:30:46;;;;;;;16.25;4.00;;;;;;;;;;10290887;28;20080;-68
2023/09/28 16:35:45;;;;;;;10.32;3.17;;;;;;;;;;10293018;28;20064;-67
2023/09/28 16:40:44;;;;;;;12.80;3.40;;;;;;;;;;10285574;28;20064;-66
2023/09/28 16:45:42;;;;;;;18.38;4.25;;;;;;;;;;10290708;28;20541;-67
2023/09/28 16:50:40;;;;;;;17.65;4.90;;;;;;;;;;10292339;28;20091;-65
2023/09/28 16:55:40;;;;;;;16.80;4.78;;;;;;;;;;10292754;28;20056;-65
2023/09/28 17:00:38;;;;;;;16.55;4.47;;;;;;;;;;10291627;28;20071;-65
2023/09/28 17:05:36;;;;;;;21.20;5.05;;;;;;;;;;10291337;28;20067;-65
2023/09/28 17:10:35;;;;;;;11.98;5.85;;;;;;;;;;10287087;28;20076;-64
2023/09/28 17:15:34;;;;;;;16.38;6.47;;;;;;;;;;10297983;28;20285;-66
2023/09/28 17:20:33;;;;;;;20.88;5.55;;;;;;;;;;10289241;28;20494;-66
2023/09/28 17:25:31;;;;;;;17.90;5.63;;;;;;;;;;10286460;28;20068;-65
2023/09/28 17:30:29;;;;;;;17.83;6.40;;;;;;;;;;10286774;28;20270;-65
2023/09/28 17:35:29;;;;;;;27.00;8.20;;;;;;;;;;10289018;28;20075;-65
2023/09/28 17:40:28;;;;;;;23.77;9.55;;;;;;;;;;10289293;28;20064;-66
2023/09/28 17:45:27;;;;;;;24.83;12.73;;;;;;;;;;10290669;28;20080;-65
2023/09/28 17:50:25;;;;;;;30.55;13.30;;;;;;;;;;10287700;28;20068;-65
2023/09/28 17:55:25;;;;;;;21.83;11.05;;;;;;;;;;10287997;28;20076;-65
2023/09/28 18:00:23;;;;;;;27.85;8.50;;;;;;;;;;10288715;28;20477;-64
2023/09/28 18:05:21;;;;;;;19.30;6.45;;;;;;;;;;10283894;28;20068;-65
2023/09/28 18:10:20;;;;;;;15.25;6.78;;;;;;;;;;10288137;28;20079;-65
2023/09/28 18:15:20;;;;;;;12.90;6.88;;;;;;;;;;10284510;28;20077;-64
2023/09/28 18:20:18;;;;;;;22.40;6.13;;;;;;;;;;10289077;28;20071;-63
2023/09/28 18:25:16;;;;;;;18.38;6.40;;;;;;;;;;10286167;28;20067;-63
2023/09/28 18:30:15;;;;;;;20.10;5.32;;;;;;;;;;10288592;28;20510;-66
2023/09/28 18:35:15;;;;;;;14.73;4.53;;;;;;;;;;10286286;28;20068;-65
2023/09/28 18:40:13;;;;;;;15.48;3.92;;;;;;;;;;10284400;28;20079;-65
2023/09/28 18:45:12;;;;;;;14.02;3.75;;;;;;;;;;10285912;28;20530;-63
2023/09/28 18:50:11;;;;;;;19.23;4.05;;;;;;;;;;10284958;28;20076;-66
2023/09/28 18:55:11;;;;;;;14.32;3.70;;;;;;;;;;10297736;28;20080;-65
2023/09/28 19:00:10;;;;;;;15.40;3.97;;;;;;;;;;10295985;28;20071;-65
2023/09/28 19:05:09;;;;;;;16.65;3.53;;;;;;;;;;10296207;28;20072;-64
2023/09/28 19:10:08;;;;;;;19.77;3.42;;;;;;;;;;10296434;28;20084;-65
2023/09/28 19:15:09;;;;;;;11.98;3.20;;;;;;;;;;10294289;28;20569;-64
2023/09/28 19:20:08;;;;;;;13.13;4.03;;;;;;;;;;10295616;28;20076;-65
2023/09/28 19:25:07;;;;;;;14.00;3.95;;;;;;;;;;10293367;28;20060;-66
2023/09/28 19:30:06;;;;;;;14.30;3.55;;;;;;;;;;10293293;28;20084;-65
2023/09/28 19:35:08;;;;;;;9.20;3.67;;;;;;;;;;10291580;28;20080;-65
2023/09/28 19:40:09;;;;;;;15.98;4.53;;;;;;;;;;10294615;28;20481;-65
2023/09/28 19:45:08;;;;;;;18.70;4.70;;;;;;;;;;10288131;28;20099;-65
2023/09/28 19:50:08;;;;;;;18.80;4.82;;;;;;;;;;10291219;28;20083;-65
2023/09/28 19:55:08;;;;;;;20.73;6.03;;;;;;;;;;10290529;28;20075;-65
2023/09/28 20:00:10;;;;;;;19.20;5.07;;;;;;;;;;10292572;28;20072;-65
2023/09/28 20:05:10;;;;;;;13.27;5.38;;;;;;;;;;10294259;28;20080;-65
2023/09/28 20:10:10;;;;;;;15.38;5.63;;;;;;;;;;10293708;28;20075;-65
2023/09/28 20:15:09;;;;;;;17.58;5.47;;;;;;;;;;10290668;28;20068;-65
2023/09/28 20:20:09;;;;;;;12.43;5.60;;;;;;;;;;10293961;28;20080;-66
2023/09/28 20:25:09;;;;;;;17.13;6.03;;;;;;;;;;10293806;28;20071;-65
2023/09/28 20:30:08;;;;;;;15.70;5.88;;;;;;;;;;10289130;28;20514;-67
2023/09/28 20:35:07;;;;;;;20.88;6.25;;;;;;;;;;10280743;28;20081;-65
2023/09/28 20:40:06;;;;;;;15.48;5.95;;;;;;;;;;10281763;28;20088;-64
2023/09/28 20:45:06;;;;;;;31.83;6.10;;;;;;;;;;10291558;28;20107;-64
2023/09/28 20:50:07;;;;;;;10.07;5.57;;;;;;;;;;10289448;28;20080;-65
2023/09/28 20:55:06;;;;;;;14.30;6.03;;;;;;;;;;10289059;28;20086;-65
2023/09/28 21:00:10;;;;;;;21.48;5.10;;;;;;;;;;10292191;28;20092;-65
2023/09/28 21:05:09;;;;;;;22.13;5.80;;;;;;;;;;10292787;28;20532;-65
2023/09/28 21:10:08;;;;;;;11.05;5.32;;;;;;;;;;10290122;28;20068;-65
2023/09/28 21:15:08;;;;;;;18.00;4.93;;;;;;;;;;10291486;28;20467;-65
2023/09/28 21:20:07;;;;;;;19.33;5.75;;;;;;;;;;10287431;28;20053;-66
2023/09/28 21:25:06;;;;;;;8.02;4.63;;;;;;;;;;10287904;28;20473;-64
2023/09/28 21:30:05;;;;;;;22.73;5.95;;;;;;;;;;10285743;28;20096;-64
2023/09/28 21:35:06;;;;;;;15.15;5.28;;;;;;;;;;10288310;28;20072;-64
2023/09/28 21:40:04;;;;;;;9.68;5.40;;;;;;;;;;10292250;28;20072;-64
2023/09/28 21:45:06;;;;;;;21.10;5.05;;;;;;;;;;10286742;28;20079;-64
2023/09/28 21:50:07;;;;;;;12.73;4.90;;;;;;;;;;10289493;28;20087;-65
2023/09/28 21:55:06;;;;;;;8.05;4.72;;;;;;;;;;10289811;28;20079;-65
2023/09/28 22:00:18;;;;;;;10.70;4.50;;;;;;;;;;10287360;28;20553;-64
2023/09/28 22:05:18;;;;;;;19.70;5.90;;;;;;;;;;10288052;28;20506;-64
2023/09/28 22:10:16;;;;;;;16.83;5.00;;;;;;;;;;10282684;28;20134;-65
2023/09/28 22:15:14;;;;;;;19.33;8.55;;;;;;;;;;10286317;28;20087;-65
2023/09/28 22:20:12;;;;;;;14.30;6.05;;;;;;;;;;10292362;28;20516;-65
2023/09/28 22:25:12;;;;;;;11.05;5.53;;;;;;;;;;10288241;28;20083;-66
2023/09/28 22:30:11;;;;;;;24.48;6.63;;;;;;;;;;10289089;28;20631;-66
2023/09/28 22:35:10;;;;;;;20.17;6.32;;;;;;;;;;10291121;28;20088;-66
2023/09/28 22:40:09;;;;;;;14.65;6.22;;;;;;;;;;10289260;28;20535;-66
2023/09/28 22:45:26;;;;;;;16.40;4.97;;;;;;;;;;10288179;28;20095;-66
2023/09/28 22:50:24;;;;;;;13.45;5.60;;;;;;;;;;10288215;28;20152;-66
2023/09/28 22:55:23;;;;;;;12.95;4.90;;;;;;;;;;10290186;28;20516;-66
2023/09/28 23:00:21;;;;;;;17.13;4.88;;;;;;;;;;10293159;28;20080;-63
2023/09/28 23:05:20;;;;;;;7.10;4.00;;;;;;;;;;10289286;28;20074;-66
2023/09/28 23:10:19;;;;;;;10.27;4.85;;;;;;;;;;10288507;28;20064;-65
2023/09/28 23:15:17;;;;;;;16.52;5.10;;;;;;;;;;10287847;28;20076;-65
2023/09/28 23:20:16;;;;;;;12.00;4.55;;;;;;;;;;10290399;28;20107;-65
2023/09/28 23:25:17;;;;;;;13.38;4.65;;;;;;;;;;10286641;28;20072;-64
2023/09/28 23:30:18;;;;;;;11.10;4.43;;;;;;;;;;10287876;28;20073;-66
2023/09/28 23:35:19;;;;;;;16.42;4.63;;;;;;;;;;10286945;28;20076;-65
2023/09/28 23:40:21;;;;;;;16.50;5.28;;;;;;;;;;10294191;28;20071;-66
2023/09/28 23:45:22;;;;;;;11.30;4.85;;;;;;;;;;10294925;28;20439;-66
2023/09/28 23:50:21;;;;;;;9.77;4.60;;;;;;;;;;10295968;28;20065;-66
2023/09/28 23:55:20;;;;;;;23.38;4.95;;;;;;;;;;10292570;28;20095;-64
